Für Piloten

Informationen für Piloten zum Flugplatz Borken-Hoxfeld
Hier findest Du alle relevanten Informationen, die Du als Pilot benötigst, um Borken-Hoxfeld anzufliegen.

Flugplatz: Borken-Hoxfeld ICAO-Code: EDLY
Borken-Hoxfeld Info: 122,930 Mhz
GAFOR Gebiet: 32
Platzrunde: Motorflug; -> Südplatzrunde; Segelflug; -> Nordplatzrunde;
Landegebühr: z.Zt. 5,00 Euro
Platzhöhe: 48m üMSL
Pisten: 12/30 – 740 m x 30 m, GRAS
Betriebszeiten: PPR (in den Sommermonaten Mittagspause beachten)

 

Wetterforecast:

Available data for EDDL from the past 2 hours
DUESSELDORF
Metar
EDDL 220320Z 16005KT CAVOK 15/14 Q1023 NOSIG

03:20 UTC

Wind: 160° 5kt

Visibility:

Sky:

Temp: 15 deg C / 59 deg F

Dewpoint: 14 deg C / 57.2 deg F

Pressure: 1023 hPa

TAF
TAF EDDL 212300Z 2200/2306 VRB03KT CAVOK BECMG 2204/2206 24008KT BECMG 2217/2219 VRB03KT

Alle obigen Informationen ersetzen nicht die vorgeschriebene, persönliche Flugvorbereitung.